createdAt,value
2022-09-16T00:01:20.254Z,70.72
2022-09-16T00:03:48.580Z,71.03
2022-09-16T00:06:27.780Z,70.79
2022-09-16T00:08:57.051Z,71.00
2022-09-16T00:11:24.749Z,70.75
2022-09-16T00:13:52.616Z,70.25
2022-09-16T00:16:25.990Z,72.61
2022-09-16T00:18:55.495Z,69.75
2022-09-16T00:21:24.238Z,70.84
2022-09-16T00:23:51.765Z,68.91
2022-09-16T00:26:19.756Z,69.38
2022-09-16T00:28:50.997Z,68.64
2022-09-16T00:31:21.227Z,69.69
2022-09-16T00:33:49.833Z,71.78
2022-09-16T00:36:19.613Z,69.74
2022-09-16T00:38:51.274Z,69.21
2022-09-16T00:41:33.451Z,69.32
2022-09-16T00:44:06.127Z,69.63
2022-09-16T00:46:40.143Z,71.78
2022-09-16T00:49:13.255Z,70.56
2022-09-16T00:51:42.242Z,71.90
2022-09-16T00:54:10.182Z,71.55
2022-09-16T00:56:39.465Z,70.19
2022-09-16T00:59:28.702Z,71.06
2022-09-16T01:02:00.916Z,70.21
2022-09-16T01:04:39.513Z,70.18
2022-09-16T01:07:06.951Z,69.78
2022-09-16T01:09:34.840Z,73.29
2022-09-16T01:12:05.467Z,70.12
2022-09-16T01:14:51.545Z,70.24
2022-09-16T01:17:34.726Z,70.35
2022-09-16T01:20:39.896Z,69.96
2022-09-16T01:23:26.201Z,68.70
2022-09-16T01:26:12.658Z,69.50
2022-09-16T01:28:49.499Z,69.57
2022-09-16T01:31:39.106Z,69.85
2022-09-16T01:34:45.556Z,71.64
2022-09-16T01:37:22.205Z,70.69
2022-09-16T01:40:04.675Z,70.04
2022-09-16T01:42:39.077Z,70.11
2022-09-16T01:45:16.680Z,70.31
2022-09-16T01:47:54.711Z,71.69
2022-09-16T01:50:33.219Z,70.45
2022-09-16T01:53:03.862Z,69.04
2022-09-16T01:55:53.875Z,70.29
2022-09-16T01:58:36.967Z,69.65
2022-09-16T02:01:10.272Z,69.46
2022-09-16T02:03:41.186Z,67.56
2022-09-16T02:06:12.574Z,67.95
2022-09-16T02:08:44.967Z,68.11
2022-09-16T02:11:16.788Z,68.97
2022-09-16T02:14:00.638Z,69.14
2022-09-16T02:16:35.315Z,69.01
2022-09-16T02:19:06.786Z,68.24
2022-09-16T02:21:36.563Z,70.15
2022-09-16T02:24:08.231Z,68.47
2022-09-16T02:26:45.056Z,68.47
2022-09-16T02:29:17.581Z,67.93
2022-09-16T02:31:46.287Z,67.92
2022-09-16T02:34:22.542Z,68.20
2022-09-16T02:36:56.056Z,67.84
2022-09-16T02:39:29.493Z,67.66
2022-09-16T02:41:57.498Z,67.10
2022-09-16T02:44:25.776Z,66.67
2022-09-16T02:47:22.358Z,67.63
2022-09-16T02:49:55.909Z,67.12
2022-09-16T02:52:46.781Z,68.30
2022-09-16T02:55:14.719Z,68.12
2022-09-16T02:57:42.396Z,69.00
2022-09-16T03:00:10.388Z,66.29
2022-09-16T03:02:38.385Z,69.19
2022-09-16T03:05:06.725Z,66.90
2022-09-16T03:07:41.953Z,67.15
2022-09-16T03:10:15.578Z,67.10
2022-09-16T03:12:56.569Z,66.55
2022-09-16T03:15:43.847Z,66.44
2022-09-16T03:18:49.927Z,65.42
2022-09-16T03:21:33.804Z,67.49
2022-09-16T03:24:04.620Z,67.71
2022-09-16T03:26:41.973Z,67.02
2022-09-16T03:29:30.047Z,67.26
2022-09-16T03:32:17.719Z,67.03
2022-09-16T03:35:00.487Z,66.38
2022-09-16T03:37:34.831Z,65.97
2022-09-16T03:40:09.297Z,67.27
2022-09-16T03:42:43.154Z,67.59
2022-09-16T03:45:17.319Z,68.42
2022-09-16T03:47:46.667Z,66.99
2022-09-16T03:50:20.690Z,67.38
2022-09-16T03:52:50.524Z,66.70
2022-09-16T03:55:19.327Z,66.92
2022-09-16T03:57:47.635Z,65.71
2022-09-16T04:00:16.507Z,65.60
2022-09-16T04:02:48.166Z,65.37
2022-09-16T04:05:17.091Z,67.00
2022-09-16T04:07:48.983Z,66.48
2022-09-16T04:10:18.195Z,67.28
2022-09-16T04:12:47.224Z,66.44
2022-09-16T04:15:18.817Z,66.36
2022-09-16T04:17:56.835Z,65.86
2022-09-16T04:20:28.416Z,65.40
2022-09-16T04:22:56.865Z,66.42
2022-09-16T04:25:24.678Z,65.17
2022-09-16T04:27:53.277Z,65.20
2022-09-16T04:30:21.937Z,65.63
2022-09-16T04:32:54.582Z,65.71
2022-09-16T04:35:23.698Z,65.48
2022-09-16T04:37:55.559Z,65.57
2022-09-16T04:40:23.857Z,65.30
2022-09-16T04:42:53.133Z,65.25
2022-09-16T04:45:22.349Z,67.85
2022-09-16T04:47:58.057Z,66.69
2022-09-16T04:50:33.818Z,66.87
2022-09-16T04:53:02.809Z,66.86
2022-09-16T04:55:32.845Z,66.40
2022-09-16T04:58:06.214Z,70.19
2022-09-16T05:00:35.346Z,67.55
2022-09-16T05:03:05.488Z,67.29
2022-09-16T05:05:36.978Z,66.84
2022-09-16T05:08:07.012Z,66.73
2022-09-16T05:10:48.783Z,69.75
2022-09-16T05:13:19.807Z,69.83
2022-09-16T05:15:51.213Z,70.39
2022-09-16T05:18:20.002Z,69.75
2022-09-16T05:21:00.207Z,71.06
2022-09-16T05:23:29.199Z,70.59
2022-09-16T05:26:08.118Z,68.17
2022-09-16T05:28:36.574Z,69.94
2022-09-16T05:31:16.217Z,68.69
2022-09-16T05:34:05.407Z,68.52
2022-09-16T05:36:36.439Z,68.04
2022-09-16T05:39:22.259Z,69.71
2022-09-16T05:41:54.893Z,67.75
2022-09-16T05:44:22.834Z,67.70
2022-09-16T05:46:52.430Z,71.18
2022-09-16T05:49:21.926Z,69.50
2022-09-16T05:52:07.417Z,71.49
2022-09-16T05:54:39.102Z,72.26
2022-09-16T05:57:07.748Z,72.57
2022-09-16T05:59:35.703Z,69.74
2022-09-16T06:02:04.472Z,71.96
2022-09-16T06:04:50.478Z,71.03
2022-09-16T06:07:18.586Z,67.57
2022-09-16T06:09:47.384Z,69.13
2022-09-16T06:12:15.573Z,68.23
2022-09-16T06:14:43.539Z,68.03
2022-09-16T06:17:11.874Z,67.42
2022-09-16T06:19:41.901Z,67.45
2022-09-16T06:22:13.580Z,66.69
2022-09-16T06:24:42.768Z,67.48
2022-09-16T06:27:13.172Z,68.92
2022-09-16T06:29:41.524Z,68.98
2022-09-16T06:32:09.664Z,69.14
2022-09-16T06:34:37.552Z,68.89
2022-09-16T06:37:06.787Z,69.37
2022-09-16T06:39:43.309Z,66.67
2022-09-16T06:42:12.544Z,66.81
2022-09-16T06:44:41.905Z,67.46
2022-09-16T06:47:10.159Z,68.34
2022-09-16T06:49:38.692Z,69.88
2022-09-16T06:52:06.679Z,68.55
2022-09-16T06:54:36.531Z,66.88
2022-09-16T06:57:06.574Z,66.79
2022-09-16T06:59:41.489Z,66.73
2022-09-16T07:02:11.127Z,65.18
2022-09-16T07:04:41.766Z,64.77
2022-09-16T07:07:10.549Z,64.57
2022-09-16T07:09:43.384Z,65.11
2022-09-16T07:12:19.858Z,65.33
2022-09-16T07:14:48.447Z,63.79
2022-09-16T07:17:32.634Z,65.28
2022-09-16T07:20:02.281Z,65.12
2022-09-16T07:22:38.348Z,63.31
2022-09-16T07:25:14.376Z,63.31
2022-09-16T07:27:44.073Z,62.48
2022-09-16T07:30:18.162Z,64.55
2022-09-16T07:32:51.731Z,63.82
2022-09-16T07:35:28.459Z,63.27
2022-09-16T07:38:01.963Z,61.26
2022-09-16T07:40:31.605Z,61.85
2022-09-16T07:43:07.032Z,62.11
2022-09-16T07:45:36.353Z,61.24
2022-09-16T07:48:11.159Z,61.05
2022-09-16T07:50:53.848Z,61.63
2022-09-16T07:53:29.584Z,62.20
2022-09-16T07:56:23.300Z,63.25
2022-09-16T07:58:54.755Z,64.92
2022-09-16T08:01:27.934Z,61.87
2022-09-16T08:03:57.353Z,61.40
2022-09-16T08:06:32.679Z,63.58
2022-09-16T08:09:27.278Z,62.43
2022-09-16T08:12:00.167Z,62.18
2022-09-16T08:14:28.563Z,63.35
2022-09-16T08:17:08.444Z,60.71
2022-09-16T08:19:42.331Z,60.26
2022-09-16T08:22:12.280Z,61.22
2022-09-16T08:25:00.624Z,61.79
2022-09-16T08:27:38.576Z,62.07
2022-09-16T08:30:12.215Z,62.77
2022-09-16T08:32:41.822Z,63.68
2022-09-16T08:35:18.290Z,62.12
2022-09-16T08:37:50.128Z,62.92
2022-09-16T08:43:10.999Z,61.99
2022-09-16T08:46:10.511Z,61.90
2022-09-16T08:49:04.051Z,60.38
2022-09-16T08:51:43.901Z,61.04
2022-09-16T08:54:26.031Z,61.14
2022-09-16T08:57:05.678Z,63.04
2022-09-16T08:59:37.859Z,63.52
2022-09-16T09:02:26.339Z,59.86
2022-09-16T09:04:57.200Z,59.50
2022-09-16T09:07:56.621Z,58.78
2022-09-16T09:10:32.084Z,58.00
2022-09-16T09:13:46.728Z,58.01
2022-09-16T09:16:20.714Z,59.28
2022-09-16T09:18:58.899Z,60.41
2022-09-16T09:21:45.938Z,60.57
2022-09-16T09:24:42.610Z,60.50
2022-09-16T09:27:31.477Z,59.57
2022-09-16T09:30:24.137Z,59.78
2022-09-16T09:33:44.484Z,59.31
2022-09-16T09:36:19.107Z,58.75
2022-09-16T09:39:16.998Z,60.21
2022-09-16T09:42:03.728Z,60.14
2022-09-16T09:45:01.493Z,59.18
2022-09-16T09:47:43.089Z,58.77
2022-09-16T09:50:19.472Z,58.52
2022-09-16T09:52:55.078Z,59.02
2022-09-16T09:55:25.986Z,58.84
2022-09-16T09:58:35.272Z,58.83
2022-09-16T10:01:04.353Z,59.06
2022-09-16T10:03:34.018Z,54.46
2022-09-16T10:06:03.319Z,53.82
2022-09-16T10:08:38.601Z,53.33
2022-09-16T10:11:22.800Z,51.95
2022-09-16T10:13:58.176Z,51.39
2022-09-16T10:16:31.865Z,51.99
2022-09-16T10:19:21.470Z,53.76
2022-09-16T10:22:12.347Z,55.39
2022-09-16T10:24:55.102Z,56.09
2022-09-16T10:27:39.026Z,54.43
2022-09-16T10:30:15.746Z,55.85
2022-09-16T10:32:58.680Z,54.78
2022-09-16T10:35:33.808Z,54.99
2022-09-16T10:38:10.809Z,56.07
2022-09-16T10:44:26.016Z,55.87
2022-09-16T10:53:45.838Z,55.18
2022-09-16T10:56:26.542Z,57.60
2022-09-16T10:59:07.697Z,54.75
2022-09-16T11:01:46.148Z,59.04
2022-09-16T11:04:42.234Z,54.96
2022-09-16T11:07:41.923Z,53.25
2022-09-16T11:10:39.437Z,52.42
2022-09-16T11:13:18.922Z,52.75
2022-09-16T11:16:11.038Z,53.63
2022-09-16T11:19:09.363Z,51.11
2022-09-16T11:22:15.544Z,53.44
2022-09-16T11:25:17.167Z,54.34
2022-09-16T11:28:14.723Z,53.92
2022-09-16T11:30:57.055Z,53.91
2022-09-16T11:34:05.242Z,54.19
2022-09-16T11:36:46.931Z,56.17
2022-09-16T11:39:39.672Z,56.91
2022-09-16T11:42:25.291Z,54.52
2022-09-16T11:45:02.486Z,52.30
2022-09-16T11:48:08.528Z,51.64
2022-09-16T11:51:17.288Z,50.28
2022-09-16T11:54:01.918Z,54.46
2022-09-16T11:56:50.136Z,52.60
2022-09-16T11:59:41.618Z,53.33
2022-09-16T12:02:24.067Z,55.06
2022-09-16T12:05:27.789Z,53.15
2022-09-16T12:08:23.211Z,52.64
2022-09-16T12:11:16.150Z,51.88
2022-09-16T12:13:53.886Z,48.86
2022-09-16T12:16:52.473Z,49.83
2022-09-16T12:20:14.167Z,49.37
2022-09-16T12:23:11.439Z,48.62
2022-09-16T12:26:11.908Z,48.74
2022-09-16T12:28:47.154Z,48.30
2022-09-16T12:31:47.918Z,49.53
2022-09-16T12:34:30.226Z,50.81
2022-09-16T12:37:47.808Z,50.02
2022-09-16T12:40:20.654Z,50.59
2022-09-16T12:43:22.757Z,50.12
2022-09-16T12:46:29.336Z,50.95
2022-09-16T12:49:00.358Z,49.99
2022-09-16T12:51:50.639Z,51.26
2022-09-16T12:55:04.018Z,53.41
2022-09-16T12:58:36.481Z,51.12
2022-09-16T13:01:34.916Z,50.17
2022-09-16T13:04:15.532Z,50.71
2022-09-16T13:07:06.236Z,50.15
2022-09-16T13:09:46.969Z,50.79
2022-09-16T13:15:25.192Z,48.57
2022-09-16T13:17:57.486Z,48.36
2022-09-16T13:20:34.199Z,49.96
2022-09-16T13:23:21.104Z,49.64
2022-09-16T13:25:59.417Z,50.36
2022-09-16T13:28:36.888Z,52.47
2022-09-16T13:31:34.351Z,51.59
2022-09-16T13:34:16.726Z,52.91
2022-09-16T13:36:52.214Z,52.07
2022-09-16T13:39:35.533Z,51.79
2022-09-16T13:42:19.038Z,55.47
2022-09-16T13:44:47.493Z,55.30
2022-09-16T13:47:40.679Z,54.71
2022-09-16T13:50:32.139Z,52.81
2022-09-16T13:53:36.333Z,53.31
2022-09-16T13:56:38.048Z,53.97
2022-09-16T13:59:49.347Z,54.27
2022-09-16T14:03:03.508Z,53.60
2022-09-16T14:05:59.909Z,55.27
2022-09-16T14:08:51.891Z,54.66
2022-09-16T14:11:59.456Z,56.75
2022-09-16T14:14:50.106Z,55.08
2022-09-16T14:17:28.027Z,53.46
2022-09-16T14:20:04.537Z,54.54
2022-09-16T14:22:38.607Z,55.46
2022-09-16T14:25:45.719Z,53.79
2022-09-16T14:28:25.107Z,55.86
2022-09-16T14:31:06.071Z,54.11
2022-09-16T14:33:47.356Z,54.29
2022-09-16T14:36:35.002Z,54.08
2022-09-16T14:39:29.542Z,56.12
2022-09-16T14:42:03.743Z,56.37
2022-09-16T14:44:54.697Z,55.40
2022-09-16T14:47:51.677Z,54.87
2022-09-16T14:50:35.800Z,53.93
2022-09-16T14:53:22.397Z,54.90
2022-09-16T14:58:30.308Z,54.42
2022-09-16T15:01:31.964Z,55.04
2022-09-16T15:04:19.930Z,54.68
2022-09-16T15:07:12.570Z,53.59
2022-09-16T15:10:05.653Z,53.85
2022-09-16T15:13:10.762Z,54.87
2022-09-16T15:15:52.701Z,54.23
2022-09-16T15:18:37.770Z,54.77
2022-09-16T15:21:32.174Z,55.66
2022-09-16T15:24:39.351Z,54.81
2022-09-16T15:27:30.386Z,55.91
2022-09-16T15:30:32.877Z,53.88
2022-09-16T15:33:31.190Z,53.50
2022-09-16T15:36:04.827Z,53.31
2022-09-16T15:38:44.185Z,55.03
2022-09-16T15:41:16.817Z,55.27
2022-09-16T15:43:46.867Z,55.20
2022-09-16T15:46:22.426Z,56.04
2022-09-16T15:49:02.317Z,55.92
2022-09-16T15:51:44.839Z,55.44
2022-09-16T15:57:49.200Z,55.53
2022-09-16T16:00:54.486Z,55.58
2022-09-16T16:03:31.941Z,56.19
2022-09-16T16:06:00.723Z,56.48
2022-09-16T16:08:40.778Z,56.59
2022-09-16T16:11:20.383Z,55.48
2022-09-16T16:13:53.313Z,56.79
2022-09-16T16:16:29.122Z,57.14
2022-09-16T16:18:59.784Z,56.44
2022-09-16T16:21:31.586Z,57.30
2022-09-16T16:24:02.631Z,57.75
2022-09-16T16:26:41.699Z,57.40
2022-09-16T16:29:11.156Z,56.83
2022-09-16T16:31:41.364Z,57.09
2022-09-16T16:34:09.632Z,56.05
2022-09-16T16:36:39.954Z,55.21
2022-09-16T16:39:13.553Z,56.12
2022-09-16T16:41:44.383Z,57.61
2022-09-16T16:44:18.341Z,56.51
2022-09-16T16:47:15.416Z,55.57
2022-09-16T16:49:48.375Z,56.31
2022-09-16T16:52:19.829Z,55.82
2022-09-16T16:54:52.394Z,55.67
2022-09-16T16:57:22.859Z,54.75
2022-09-16T16:59:56.952Z,55.90
2022-09-16T17:02:26.561Z,59.21
2022-09-16T17:05:00.484Z,60.66
2022-09-16T17:07:30.031Z,59.51
2022-09-16T17:10:04.261Z,60.66
2022-09-16T17:12:33.083Z,61.33
2022-09-16T17:15:01.611Z,60.87
2022-09-16T17:17:31.783Z,59.12
2022-09-16T17:20:00.990Z,58.08
2022-09-16T17:22:29.325Z,58.21
2022-09-16T17:24:57.474Z,57.90
2022-09-16T17:27:27.972Z,57.39
2022-09-16T17:29:56.818Z,56.98
2022-09-16T17:32:25.571Z,61.57
2022-09-16T17:34:56.423Z,60.65
2022-09-16T17:37:24.887Z,61.01
2022-09-16T17:39:53.152Z,60.66
2022-09-16T17:42:20.700Z,63.31
2022-09-16T17:44:48.555Z,65.31
2022-09-16T17:47:20.614Z,62.55
2022-09-16T17:49:52.973Z,64.55
2022-09-16T17:52:21.669Z,63.28
2022-09-16T17:54:53.060Z,61.76
2022-09-16T17:57:22.975Z,63.78
2022-09-16T17:59:52.952Z,61.10
2022-09-16T18:02:22.604Z,60.05
2022-09-16T18:05:08.904Z,61.08
2022-09-16T18:11:12.835Z,63.08
2022-09-16T18:13:44.240Z,64.56
2022-09-16T18:16:19.823Z,61.42
2022-09-16T18:18:55.145Z,60.34
2022-09-16T18:21:26.946Z,64.04
2022-09-16T18:23:57.287Z,65.17
2022-09-16T18:26:33.199Z,63.08
2022-09-16T18:29:10.064Z,61.47
2022-09-16T18:31:52.044Z,60.65
2022-09-16T18:34:24.969Z,62.73
2022-09-16T18:36:55.438Z,63.37
2022-09-16T18:39:27.479Z,62.18
2022-09-16T18:42:07.432Z,62.82
2022-09-16T18:44:37.226Z,62.29
2022-09-16T18:47:09.718Z,63.59
2022-09-16T18:49:47.138Z,61.59
2022-09-16T18:52:15.605Z,60.55
2022-09-16T18:54:53.365Z,60.38
2022-09-16T18:57:24.207Z,62.35
2022-09-16T19:00:00.464Z,63.07
2022-09-16T19:02:30.615Z,63.74
2022-09-16T19:05:03.460Z,62.72
2022-09-16T19:07:33.854Z,62.31
2022-09-16T19:10:03.638Z,62.10
2022-09-16T19:12:37.092Z,60.37
2022-09-16T19:15:08.604Z,60.01
2022-09-16T19:17:42.411Z,59.66
2022-09-16T19:20:15.887Z,57.95
2022-09-16T19:22:45.606Z,58.10
2022-09-16T19:25:21.042Z,58.27
2022-09-16T19:27:55.769Z,58.71
2022-09-16T19:30:38.588Z,58.45
2022-09-16T19:33:08.616Z,58.01
2022-09-16T19:35:38.167Z,57.43
2022-09-16T19:38:06.497Z,57.10
2022-09-16T19:40:42.503Z,57.55
2022-09-16T19:43:12.398Z,57.36
2022-09-16T19:45:43.260Z,58.96
2022-09-16T19:48:24.301Z,58.78
2022-09-16T19:51:33.192Z,57.96
2022-09-16T19:54:24.434Z,58.65
2022-09-16T19:57:08.028Z,61.91
2022-09-16T19:59:36.628Z,65.93
2022-09-16T20:02:09.857Z,65.76
2022-09-16T20:04:58.935Z,63.37
2022-09-16T20:07:28.440Z,64.71
2022-09-16T20:10:22.522Z,65.59
2022-09-16T20:12:57.327Z,65.32
2022-09-16T20:15:28.503Z,65.45
2022-09-16T20:18:04.945Z,65.39
2022-09-16T20:21:10.150Z,65.21
2022-09-16T20:24:15.822Z,63.54
2022-09-16T20:26:54.149Z,63.92
2022-09-16T20:29:22.426Z,61.87
2022-09-16T20:31:54.917Z,61.75
2022-09-16T20:34:29.649Z,64.44
2022-09-16T20:37:00.146Z,63.97
2022-09-16T20:39:56.787Z,62.92
2022-09-16T20:42:29.582Z,64.39
2022-09-16T20:45:01.926Z,64.06
2022-09-16T20:47:45.102Z,63.62
2022-09-16T20:50:17.532Z,65.41
2022-09-16T20:52:49.080Z,65.02
2022-09-16T20:55:20.610Z,63.45
2022-09-16T20:57:52.454Z,63.28
2022-09-16T21:00:34.846Z,62.98
2022-09-16T21:03:05.066Z,62.25
2022-09-16T21:05:32.740Z,61.93
2022-09-16T21:08:05.006Z,61.71
2022-09-16T21:10:48.033Z,63.22
2022-09-16T21:13:25.316Z,63.89
2022-09-16T21:15:57.932Z,63.10
2022-09-16T21:18:46.359Z,64.10
2022-09-16T21:21:19.890Z,65.49
2022-09-16T21:23:50.311Z,65.74
2022-09-16T21:26:26.762Z,65.21
2022-09-16T21:29:02.824Z,67.35
2022-09-16T21:31:56.532Z,68.20
2022-09-16T21:34:25.269Z,67.76
2022-09-16T21:36:53.877Z,69.09
2022-09-16T21:39:31.400Z,67.15
2022-09-16T21:42:09.542Z,68.44
2022-09-16T21:44:37.931Z,67.91
2022-09-16T21:47:11.649Z,68.21
2022-09-16T21:49:40.740Z,67.32
2022-09-16T21:52:34.724Z,67.02
2022-09-16T21:55:12.061Z,66.39
2022-09-16T21:58:01.694Z,64.78
2022-09-16T22:00:34.810Z,65.87
2022-09-16T22:03:05.873Z,65.83
2022-09-16T22:05:54.144Z,65.39
2022-09-16T22:08:22.908Z,65.26
2022-09-16T22:10:51.219Z,65.10
2022-09-16T22:13:22.082Z,67.32
2022-09-16T22:15:57.675Z,67.17
2022-09-16T22:18:32.903Z,67.42
2022-09-16T22:21:10.263Z,67.86
2022-09-16T22:23:43.135Z,68.41
2022-09-16T22:26:13.483Z,68.20
2022-09-16T22:28:42.474Z,69.26
2022-09-16T22:31:12.958Z,70.58
2022-09-16T22:33:47.387Z,70.22
2022-09-16T22:36:26.575Z,68.20
2022-09-16T22:39:01.634Z,69.13
2022-09-16T22:41:30.507Z,70.52
2022-09-16T22:43:59.006Z,68.94
2022-09-16T22:46:37.289Z,69.57
2022-09-16T22:49:09.506Z,68.51
2022-09-16T22:51:47.974Z,69.67
2022-09-16T22:54:20.101Z,68.42
2022-09-16T22:56:48.138Z,68.73
2022-09-16T22:59:18.878Z,70.36
2022-09-16T23:01:50.063Z,69.74
2022-09-16T23:04:18.355Z,69.18
2022-09-16T23:06:46.834Z,68.69
2022-09-16T23:09:20.624Z,68.84
2022-09-16T23:11:48.205Z,68.75
2022-09-16T23:14:22.080Z,67.32
2022-09-16T23:16:51.565Z,67.17
2022-09-16T23:19:20.471Z,69.24
2022-09-16T23:21:49.983Z,69.41
2022-09-16T23:24:20.323Z,66.62
2022-09-16T23:26:49.126Z,67.64
2022-09-16T23:29:18.516Z,67.27
2022-09-16T23:31:48.337Z,68.43
2022-09-16T23:34:19.700Z,67.82
2022-09-16T23:36:51.119Z,66.70
2022-09-16T23:39:19.025Z,67.56
2022-09-16T23:41:47.293Z,69.46
2022-09-16T23:44:19.620Z,69.44
2022-09-16T23:46:52.972Z,69.77
2022-09-16T23:49:27.520Z,72.50
2022-09-16T23:51:55.219Z,70.71
2022-09-16T23:54:23.711Z,69.39
2022-09-16T23:56:56.026Z,70.54
2022-09-16T23:59:24.210Z,70.40
